Time;durP1;ratioP1;P1;durP2;ratioP2;P2;SDS_P1;SDS_P2;PMS_P1;PMS_P2;Temp;Humidity;BMP_temperature;BMP_pressure;BME280_temperature;BME280_humidity;BME280_pressure;Samples;Min_cycle;Max_cycle;Signal;HPM_P1;HPM_P2
2022/07/22 00:01:34;;;;;;;9.30;3.80;;;;;;;22.43;46.49;97978.61;106578;1274;24405;-82
2022/07/22 00:04:02;;;;;;;7.30;3.80;;;;;;;22.44;47.09;97973.90;106730;1274;23491;-84
2022/07/22 00:06:30;;;;;;;8.60;4.20;;;;;;;22.51;47.71;97974.84;106791;1274;22728;-83
2022/07/22 00:08:58;;;;;;;8.30;4.30;;;;;;;22.58;47.78;97970.53;106992;1274;22554;-82
2022/07/22 00:11:27;;;;;;;9.80;4.60;;;;;;;22.61;48.56;97970.88;106691;1274;22580;-80
2022/07/22 00:13:54;;;;;;;9.70;4.50;;;;;;;22.71;48.52;97974.35;106764;1274;22683;-81
2022/07/22 00:16:22;;;;;;;12.90;4.60;;;;;;;22.66;47.14;97972.42;106836;1274;22695;-81
2022/07/22 00:18:51;;;;;;;8.10;4.30;;;;;;;22.40;47.55;97977.48;106776;1274;23337;-81
2022/07/22 00:21:19;;;;;;;8.30;4.20;;;;;;;22.28;48.88;97974.66;106850;1274;24186;-80
2022/07/22 00:23:47;;;;;;;7.00;3.60;;;;;;;22.31;49.09;97975.88;106816;1274;25344;-81
2022/07/22 00:26:15;;;;;;;7.60;4.20;;;;;;;22.33;48.67;97973.55;106780;1274;23373;-81
2022/07/22 00:28:43;;;;;;;6.60;4.10;;;;;;;22.21;47.91;97974.58;106723;1274;26503;-81
2022/07/22 00:31:11;;;;;;;7.30;4.20;;;;;;;21.99;48.11;97973.74;106630;1274;24329;-80
2022/07/22 00:33:40;;;;;;;7.30;4.40;;;;;;;21.73;48.09;97975.83;106758;1274;24430;-81
2022/07/22 00:36:08;;;;;;;9.70;4.00;;;;;;;21.49;49.32;97980.80;106794;1274;22563;-81
2022/07/22 00:38:36;;;;;;;7.70;4.40;;;;;;;21.38;49.60;97977.66;106914;1274;22740;-81
2022/07/22 00:41:04;;;;;;;7.00;3.80;;;;;;;21.34;49.24;97985.95;106864;1274;25497;-80
2022/07/22 00:44:02;;;;;;;8.50;4.30;;;;;;;21.20;49.90;97984.54;106820;1274;22552;-82
2022/07/22 00:46:34;;;;;;;10.20;4.80;;;;;;;21.10;50.61;97983.84;106659;1274;24382;-81
2022/07/22 00:49:05;;;;;;;9.30;4.30;;;;;;;21.16;51.41;97979.69;106762;1274;22695;-81
2022/07/22 00:51:34;;;;;;;7.00;4.10;;;;;;;21.31;51.52;97972.98;106835;1274;22538;-80
2022/07/22 00:54:03;;;;;;;6.60;3.90;;;;;;;21.42;50.76;97969.89;106769;1273;22799;-81
2022/07/22 00:56:31;;;;;;;8.40;4.60;;;;;;;21.42;50.20;97961.74;106642;1274;22694;-81
2022/07/22 00:59:04;;;;;;;10.90;4.90;;;;;;;21.34;49.93;97964.34;106584;1274;22574;-80
2022/07/22 01:01:32;;;;;;;13.30;5.60;;;;;;;21.27;49.80;97967.13;106821;1274;23196;-81
2022/07/22 01:04:01;;;;;;;8.20;4.50;;;;;;;21.23;49.75;97968.77;106694;1274;22768;-81
2022/07/22 01:06:30;;;;;;;6.90;4.90;;;;;;;21.27;49.76;97973.94;106821;1274;22560;-81
2022/07/22 01:08:58;;;;;;;9.60;5.50;;;;;;;21.28;49.59;97978.18;106798;1274;23399;-81
2022/07/22 01:11:27;;;;;;;9.10;4.90;;;;;;;21.19;49.35;97980.31;106896;1274;22533;-81
2022/07/22 01:13:56;;;;;;;7.30;5.00;;;;;;;21.06;49.51;97986.58;106798;1274;22633;-80
2022/07/22 01:16:24;;;;;;;7.20;5.10;;;;;;;20.94;49.62;97992.10;106732;1274;22689;-81
2022/07/22 01:18:53;;;;;;;9.50;5.10;;;;;;;20.88;50.66;97989.10;106496;1274;22578;-80
2022/07/22 01:21:22;;;;;;;6.90;4.60;;;;;;;21.07;51.24;97980.33;106672;1275;22560;-79
2022/07/22 01:23:50;;;;;;;12.10;5.50;;;;;;;21.22;50.37;97983.32;106771;1275;25388;-80
2022/07/22 01:26:18;;;;;;;9.90;4.90;;;;;;;21.03;50.08;97994.43;106762;1274;22589;-79
2022/07/22 01:28:46;;;;;;;12.30;6.00;;;;;;;20.78;50.59;98005.29;106788;1274;25690;-79
2022/07/22 01:31:14;;;;;;;8.90;5.80;;;;;;;20.55;52.08;98017.83;106589;1275;22559;-79
2022/07/22 01:33:42;;;;;;;9.00;6.60;;;;;;;20.27;52.05;98016.13;106735;1277;25351;-80
2022/07/22 01:36:10;;;;;;;11.30;6.20;;;;;;;20.06;52.83;98026.10;106528;1276;24094;-79
2022/07/22 01:38:39;;;;;;;11.20;5.90;;;;;;;19.89;52.97;98012.84;106593;1277;22564;-78
2022/07/22 01:41:07;;;;;;;10.90;6.80;;;;;;;20.00;53.12;98013.79;106614;1275;23327;-79
2022/07/22 01:43:38;;;;;;;8.00;5.70;;;;;;;20.00;53.61;98018.08;106532;1276;22556;-78
2022/07/22 01:46:06;;;;;;;10.50;6.70;;;;;;;20.18;54.50;98009.02;105823;1277;22548;-80
2022/07/22 01:48:37;;;;;;;8.30;6.50;;;;;;;20.36;54.51;98012.56;106422;1276;22700;-79
2022/07/22 01:51:06;;;;;;;12.30;6.10;;;;;;;20.52;53.77;98008.45;106550;1275;25324;-79
2022/07/22 01:53:34;;;;;;;10.30;6.30;;;;;;;20.64;54.68;98008.98;106914;1276;22531;-80
2022/07/22 01:56:02;;;;;;;10.80;5.50;;;;;;;20.73;53.68;98006.81;106702;1274;514379;-82
2022/07/22 01:58:33;;;;;;;9.70;5.60;;;;;;;20.81;54.50;98000.86;106807;1274;25324;-79
2022/07/22 02:01:07;;;;;;;8.80;6.20;;;;;;;21.02;54.58;98004.98;106746;1274;24192;-81
2022/07/22 02:03:36;;;;;;;14.60;6.20;;;;;;;21.14;53.46;98004.26;106692;1275;23878;-79
2022/07/22 02:06:05;;;;;;;10.10;5.60;;;;;;;21.06;53.12;98006.17;106754;1274;25414;-79
2022/07/22 02:08:34;;;;;;;8.10;4.90;;;;;;;20.94;53.66;98001.01;106722;1274;22714;-79
2022/07/22 02:11:10;;;;;;;9.90;6.20;;;;;;;21.06;54.49;97999.73;106755;1274;22721;-79
2022/07/22 02:13:50;;;;;;;9.40;6.40;;;;;;;20.96;52.88;98013.98;106893;1274;25350;-79
2022/07/22 02:16:18;;;;;;;10.30;5.50;;;;;;;20.54;53.44;98021.63;106798;1274;24250;-78
2022/07/22 02:18:49;;;;;;;11.00;5.60;;;;;;;20.42;55.38;98005.10;107277;1274;25338;-80
2022/07/22 02:21:17;;;;;;;12.60;6.70;;;;;;;20.48;54.02;98011.57;107160;1274;24300;-80
2022/07/22 02:23:45;;;;;;;11.20;5.90;;;;;;;20.16;54.12;98019.27;107101;1274;22473;-80
2022/07/22 02:26:13;;;;;;;10.80;5.80;;;;;;;20.06;56.26;98004.06;106962;1274;22684;-80
2022/07/22 02:28:41;;;;;;;9.10;5.70;;;;;;;20.21;55.18;98012.12;107008;1274;24450;-80
2022/07/22 02:31:10;;;;;;;11.00;5.60;;;;;;;20.17;56.36;98011.80;107038;1274;22494;-81
2022/07/22 02:33:39;;;;;;;8.60;6.40;;;;;;;20.33;55.55;98014.45;106812;1274;25904;-80
2022/07/22 02:36:08;;;;;;;9.10;6.30;;;;;;;20.18;55.02;98019.77;106810;1274;22467;-81
2022/07/22 02:38:38;;;;;;;19.60;7.20;;;;;;;20.17;56.90;98023.04;106808;1274;22852;-80
2022/07/22 02:41:06;;;;;;;10.80;5.60;;;;;;;20.33;56.71;98027.91;106974;1274;22602;-81
2022/07/22 02:43:35;;;;;;;8.30;5.80;;;;;;;20.49;55.69;98038.08;106986;1274;22577;-82
2022/07/22 02:46:03;;;;;;;8.70;5.60;;;;;;;20.51;54.99;98040.70;106709;1274;22537;-82
2022/07/22 02:48:33;;;;;;;12.40;5.80;;;;;;;20.60;56.16;98041.70;106515;1272;25188;-81
2022/07/22 02:51:01;;;;;;;8.30;5.70;;;;;;;20.66;54.96;98052.54;106603;1274;22652;-83
2022/07/22 02:53:30;;;;;;;9.50;5.70;;;;;;;20.38;54.96;98061.80;106539;1274;24419;-82
2022/07/22 02:55:59;;;;;;;10.20;5.90;;;;;;;20.16;55.31;98066.34;106468;1274;22662;-82
2022/07/22 02:58:27;;;;;;;9.00;6.00;;;;;;;20.02;55.27;98079.16;106557;1274;22539;-82
2022/07/22 03:00:56;;;;;;;8.60;5.00;;;;;;;19.93;57.51;98083.87;106626;1274;22712;-81
2022/07/22 03:03:24;;;;;;;9.30;5.60;;;;;;;20.10;57.98;98084.11;106569;1274;22560;-81
2022/07/22 03:05:52;;;;;;;11.00;5.90;;;;;;;20.32;57.71;98084.64;106617;1274;25520;-82
2022/07/22 03:08:43;;;;;;;7.30;6.10;;;;;;;20.42;56.86;98073.52;106644;1274;22541;-82
2022/07/22 03:11:40;;;;;;;11.30;9.00;;;;;;;20.30;56.27;98071.63;106578;1274;22611;-82
2022/07/22 03:14:09;;;;;;;18.90;14.30;;;;;;;20.10;56.78;98078.46;106545;1274;22551;-81
2022/07/22 03:16:38;;;;;;;13.30;11.00;;;;;;;19.93;56.77;98081.92;106631;1272;22719;-82
2022/07/22 03:19:06;;;;;;;15.00;10.00;;;;;;;19.71;56.89;98081.73;106404;1274;22709;-82
2022/07/22 03:21:35;;;;;;;18.60;9.90;;;;;;;19.59;57.56;98081.80;106649;1274;22645;-83
2022/07/22 03:24:04;;;;;;;15.10;9.20;;;;;;;19.53;57.99;98082.50;106719;1274;22548;-83
2022/07/22 03:26:32;;;;;;;17.70;9.70;;;;;;;19.44;58.33;98073.86;106536;1275;22554;-82
2022/07/22 03:29:00;;;;;;;11.40;9.70;;;;;;;19.40;59.73;98077.02;106933;1274;22723;-81
2022/07/22 03:31:29;;;;;;;14.10;10.30;;;;;;;19.45;59.43;98082.16;107354;1274;22658;-81
2022/07/22 03:33:58;;;;;;;15.40;9.00;;;;;;;19.40;59.56;98091.89;107046;1274;22549;-81
2022/07/22 03:36:29;;;;;;;16.10;10.80;;;;;;;19.27;60.16;98086.70;107523;1274;26605;-81
2022/07/22 03:38:57;;;;;;;16.40;12.50;;;;;;;19.23;60.53;98083.64;106906;1274;25913;-80
2022/07/22 03:41:26;;;;;;;21.30;14.80;;;;;;;19.13;61.41;98089.84;106515;1274;22541;-81
2022/07/22 03:43:55;;;;;;;28.80;26.20;;;;;;;19.06;61.60;98091.61;107580;1274;22614;-81
2022/07/22 03:46:23;;;;;;;25.40;22.60;;;;;;;18.99;64.02;98109.70;106766;1274;22684;-82
2022/07/22 03:48:51;;;;;;;21.80;14.20;;;;;;;18.86;65.29;98103.27;106501;1275;23438;-83
2022/07/22 03:51:20;;;;;;;20.30;12.80;;;;;;;18.75;65.53;98101.99;106559;1274;24351;-83
2022/07/22 03:53:48;;;;;;;19.80;12.10;;;;;;;18.69;64.45;98112.80;106405;1274;25500;-82
2022/07/22 03:56:16;;;;;;;15.70;11.70;;;;;;;18.67;65.55;98107.83;106377;1274;22602;-82
2022/07/22 03:58:44;;;;;;;15.80;13.20;;;;;;;18.67;65.39;98103.94;106331;1274;22696;-83
2022/07/22 04:01:12;;;;;;;19.00;12.10;;;;;;;18.66;65.24;98106.72;106344;1274;22690;-82
2022/07/22 04:03:41;;;;;;;16.90;12.00;;;;;;;18.68;65.00;98113.08;106351;1275;22550;-82
2022/07/22 04:06:16;;;;;;;19.80;12.20;;;;;;;18.72;67.44;98113.05;106480;1274;25448;-83
2022/07/22 04:08:48;;;;;;;13.60;11.90;;;;;;;18.74;68.77;98114.54;106331;1275;25343;-82
2022/07/22 04:11:17;;;;;;;17.10;13.10;;;;;;;18.72;68.61;98116.86;106374;1275;22540;-83
2022/07/22 04:13:45;;;;;;;15.70;13.10;;;;;;;18.73;70.01;98117.15;106561;1274;25365;-82
2022/07/22 04:16:13;;;;;;;17.80;12.20;;;;;;;18.73;71.03;98114.67;106503;1274;22586;-81
2022/07/22 04:18:49;;;;;;;13.90;12.00;;;;;;;18.77;70.93;98118.92;106418;1274;23202;-83
2022/07/22 04:21:20;;;;;;;17.00;12.00;;;;;;;18.79;70.13;98115.60;106365;1274;25354;-83
2022/07/22 04:23:52;;;;;;;14.30;11.80;;;;;;;18.82;69.92;98110.97;106434;1274;25356;-82
2022/07/22 04:26:29;;;;;;;22.30;12.50;;;;;;;18.89;69.46;98113.79;106394;1274;25343;-83
2022/07/22 04:28:59;;;;;;;18.60;11.90;;;;;;;18.98;69.30;98113.16;106487;1274;22552;-83
2022/07/22 04:31:28;;;;;;;18.80;12.20;;;;;;;19.07;68.76;98109.74;106363;1274;24248;-83
2022/07/22 04:34:02;;;;;;;17.30;12.30;;;;;;;19.16;68.49;98102.41;106517;1274;22470;-84
2022/07/22 04:36:30;;;;;;;15.90;13.10;;;;;;;19.25;69.07;98107.73;106397;1274;25362;-84
2022/07/22 04:38:59;;;;;;;15.80;12.40;;;;;;;19.35;69.87;98101.57;106331;1275;25385;-83
2022/07/22 04:41:28;;;;;;;18.10;13.30;;;;;;;19.43;70.69;98104.05;106320;1274;25347;-83
2022/07/22 04:43:56;;;;;;;22.60;13.10;;;;;;;19.47;70.80;98103.77;106449;1274;22695;-85
2022/07/22 04:46:25;;;;;;;17.90;13.20;;;;;;;19.52;69.80;98102.63;106298;1274;24208;-84
2022/07/22 04:48:54;;;;;;;14.80;12.20;;;;;;;19.61;70.00;98111.61;106340;1274;22558;-85
2022/07/22 04:51:24;;;;;;;21.90;12.50;;;;;;;19.70;70.85;98108.40;106446;1274;22547;-83
2022/07/22 04:53:56;;;;;;;18.20;12.80;;;;;;;19.76;70.17;98108.94;106891;1274;22559;-80
2022/07/22 04:56:24;;;;;;;14.60;12.60;;;;;;;19.87;70.37;98107.16;106539;1274;22561;-80
2022/07/22 04:58:52;;;;;;;21.60;13.10;;;;;;;19.95;70.31;98109.30;106504;1274;22614;-82
2022/07/22 05:01:23;;;;;;;18.30;12.50;;;;;;;20.00;70.76;98112.30;106601;1274;25352;-81
2022/07/22 05:03:52;;;;;;;22.60;14.40;;;;;;;20.04;70.94;98113.66;106496;1275;23575;-80
2022/07/22 05:06:20;;;;;;;18.00;13.10;;;;;;;20.08;71.34;98119.13;106571;1274;25376;-80
2022/07/22 05:08:48;;;;;;;20.60;12.80;;;;;;;20.10;70.96;98115.44;106472;1274;24374;-80
2022/07/22 05:11:17;;;;;;;21.70;13.70;;;;;;;20.13;70.73;98117.56;106459;1274;25352;-78
2022/07/22 05:13:46;;;;;;;16.60;14.10;;;;;;;20.17;70.80;98117.34;106494;1274;22726;-78
2022/07/22 05:16:14;;;;;;;18.20;13.20;;;;;;;20.25;71.34;98120.55;106449;1274;22547;-79
2022/07/22 05:18:42;;;;;;;17.90;13.70;;;;;;;20.31;71.26;98111.84;106485;1274;23822;-79
2022/07/22 05:21:13;;;;;;;19.90;13.40;;;;;;;20.36;71.24;98110.40;106061;1274;22727;-78
2022/07/22 05:23:42;;;;;;;22.00;13.30;;;;;;;20.39;70.99;98109.98;106509;1275;25547;-79
2022/07/22 05:26:11;;;;;;;18.60;12.90;;;;;;;20.40;70.83;98111.80;106457;1274;24404;-79
2022/07/22 05:28:39;;;;;;;21.30;12.50;;;;;;;20.41;70.70;98115.56;106438;1275;24359;-78
2022/07/22 05:31:07;;;;;;;17.70;12.30;;;;;;;20.46;71.15;98118.41;106450;1274;22559;-77
2022/07/22 05:33:36;;;;;;;23.40;12.30;;;;;;;20.46;71.12;98122.86;106463;1274;25356;-78
2022/07/22 05:36:09;;;;;;;22.40;13.90;;;;;;;20.44;71.14;98124.80;106528;1274;22613;-78
2022/07/22 05:38:41;;;;;;;34.50;12.50;;;;;;;20.40;71.11;98121.12;106585;1274;25530;-77
2022/07/22 05:41:09;;;;;;;28.10;13.80;;;;;;;20.41;70.72;98120.84;106105;1274;22539;-77
2022/07/22 05:43:38;;;;;;;20.40;12.00;;;;;;;20.49;71.26;98120.11;106506;1274;25434;-78
2022/07/22 05:46:07;;;;;;;19.40;12.90;;;;;;;20.52;71.04;98114.42;106425;1275;22736;-78
2022/07/22 05:48:35;;;;;;;20.30;13.10;;;;;;;20.56;70.83;98112.87;106298;1275;22566;-80
2022/07/22 05:51:03;;;;;;;21.60;13.20;;;;;;;20.61;70.41;98111.89;106340;1274;22528;-79
2022/07/22 05:53:32;;;;;;;19.70;12.80;;;;;;;20.70;70.44;98108.08;106011;1274;24999;-78
2022/07/22 05:56:00;;;;;;;21.50;12.20;;;;;;;20.78;70.16;98100.11;106352;1277;22869;-78
2022/07/22 05:58:35;;;;;;;20.00;10.60;;;;;;;21.05;70.05;98098.66;106496;1274;22679;-78
2022/07/22 06:01:03;;;;;;;18.30;11.80;;;;;;;21.29;69.68;98094.80;106411;1274;22576;-78
2022/07/22 06:03:31;;;;;;;18.10;11.80;;;;;;;21.45;69.24;98090.95;106015;1274;25201;-80
2022/07/22 06:06:01;;;;;;;14.30;11.20;;;;;;;21.68;69.29;98091.71;106479;1275;25344;-78
2022/07/22 06:08:29;;;;;;;34.90;18.00;;;;;;;21.84;68.76;98099.95;106417;1275;22825;-78
2022/07/22 06:10:59;;;;;;;23.40;14.70;;;;;;;21.99;68.44;98097.67;106416;1274;24253;-79
2022/07/22 06:13:27;;;;;;;22.10;13.00;;;;;;;22.15;67.85;98095.96;106051;1277;25165;-79
2022/07/22 06:15:55;;;;;;;17.90;11.60;;;;;;;22.28;67.61;98087.14;106509;1274;24499;-78
2022/07/22 06:18:23;;;;;;;21.90;13.50;;;;;;;22.36;67.11;98084.27;106518;1274;24371;-78
2022/07/22 06:20:52;;;;;;;27.10;13.60;;;;;;;22.46;67.00;98090.13;106539;1274;22690;-79
2022/07/22 06:23:22;;;;;;;23.10;13.10;;;;;;;22.58;66.63;98086.98;106355;1276;23772;-78
2022/07/22 06:25:50;;;;;;;23.10;12.80;;;;;;;22.74;66.50;98082.92;106019;1274;24270;-78
2022/07/22 06:28:24;;;;;;;19.80;12.30;;;;;;;22.82;65.43;98085.60;106395;1274;22644;-78
2022/07/22 06:30:52;;;;;;;14.80;11.70;;;;;;;22.90;65.35;98089.77;106399;1274;22653;-79
2022/07/22 06:33:22;;;;;;;21.10;13.10;;;;;;;22.97;64.43;98095.23;106053;1274;25421;-79
2022/07/22 06:35:50;;;;;;;16.20;12.60;;;;;;;22.97;64.68;98093.27;105868;1277;24529;-79
2022/07/22 06:38:18;;;;;;;21.00;11.50;;;;;;;23.00;64.56;98089.06;106455;1274;22544;-79
2022/07/22 06:41:19;;;;;;;21.90;11.70;;;;;;;23.06;64.46;98076.55;106400;1274;25301;-78
2022/07/22 06:44:10;;;;;;;22.60;13.40;;;;;;;23.12;64.29;98078.02;106198;1274;22813;-79
2022/07/22 06:46:57;;;;;;;18.50;11.80;;;;;;;23.19;63.90;98072.84;106044;1274;22546;-79
2022/07/22 06:49:26;;;;;;;15.50;11.10;;;;;;;23.33;63.91;98062.98;106485;1274;22560;-79
2022/07/22 06:51:55;;;;;;;23.10;11.40;;;;;;;23.49;63.40;98065.17;106280;1277;23328;-79
2022/07/22 06:54:23;;;;;;;22.00;11.60;;;;;;;23.59;63.10;98071.38;106317;1275;22556;-78
2022/07/22 06:56:52;;;;;;;19.60;11.70;;;;;;;23.64;62.72;98073.30;106061;1274;25435;-78
2022/07/22 06:59:25;;;;;;;17.40;11.80;;;;;;;23.73;62.38;98063.66;105984;1274;25328;-77
2022/07/22 07:01:53;;;;;;;19.40;11.30;;;;;;;23.79;62.05;98076.04;106515;1274;25407;-78
2022/07/22 07:04:24;;;;;;;16.40;11.20;;;;;;;23.86;61.00;98085.14;106074;1274;22557;-77
2022/07/22 07:06:52;;;;;;;20.80;11.80;;;;;;;23.87;60.95;98090.80;106437;1275;23040;-77
2022/07/22 07:09:36;;;;;;;19.60;12.70;;;;;;;23.95;60.88;98086.85;107027;1274;22647;-77
2022/07/22 07:12:19;;;;;;;20.00;12.50;;;;;;;23.97;60.34;98081.35;106115;1274;22485;-77
2022/07/22 07:15:06;;;;;;;16.40;11.70;;;;;;;23.99;60.78;98083.03;106236;1274;24476;-79
2022/07/22 07:17:58;;;;;;;19.80;12.80;;;;;;;24.10;60.55;98093.62;106660;1275;22686;-78
2022/07/22 07:20:27;;;;;;;25.00;14.40;;;;;;;24.12;59.80;98105.76;106638;1274;22531;-78
2022/07/22 07:22:59;;;;;;;22.80;13.50;;;;;;;24.06;59.81;98114.36;106483;1274;23799;-76
2022/07/22 07:25:28;;;;;;;13.70;11.40;;;;;;;23.97;60.02;98118.31;106628;1274;23343;-78
2022/07/22 07:27:57;;;;;;;20.40;13.30;;;;;;;23.89;60.05;98113.84;106548;1275;23288;-77
2022/07/22 07:30:44;;;;;;;16.80;12.40;;;;;;;23.89;60.05;98118.34;106110;1274;24317;-77
2022/07/22 07:33:12;;;;;;;28.30;12.90;;;;;;;23.91;60.02;98123.60;106653;1274;22602;-75
2022/07/22 07:35:40;;;;;;;23.40;15.20;;;;;;;23.94;60.00;98123.17;105863;1278;22690;-77
2022/07/22 07:38:09;;;;;;;27.40;13.10;;;;;;;24.05;60.22;98121.74;106770;1275;25443;-79
2022/07/22 07:40:39;;;;;;;16.00;12.00;;;;;;;24.17;60.19;98120.01;106575;1277;22560;-82
2022/07/22 07:43:15;;;;;;;18.70;13.20;;;;;;;24.28;60.53;98114.11;107228;1274;22774;-83
2022/07/22 07:45:49;;;;;;;18.80;11.90;;;;;;;24.46;60.35;98116.67;106846;1273;22586;-77
2022/07/22 07:48:17;;;;;;;23.30;12.50;;;;;;;24.56;60.29;98117.59;106568;1275;22826;-80
2022/07/22 07:50:45;;;;;;;17.70;11.00;;;;;;;24.52;60.23;98123.47;106694;1274;25322;-81
2022/07/22 07:53:17;;;;;;;15.40;11.20;;;;;;;24.48;60.47;98121.58;106684;1274;22681;-84
2022/07/22 07:55:47;;;;;;;15.10;11.80;;;;;;;24.44;60.50;98116.04;106535;1277;22634;-85
2022/07/22 07:58:17;;;;;;;27.20;12.80;;;;;;;24.41;60.22;98111.45;106892;1275;26679;-86
2022/07/22 08:00:46;;;;;;;21.60;12.30;;;;;;;24.36;60.31;98108.48;106861;1274;22673;-85
2022/07/22 08:03:13;;;;;;;19.50;13.20;;;;;;;24.37;60.28;98112.42;106405;1277;24129;-84
2022/07/22 08:05:42;;;;;;;23.30;13.40;;;;;;;24.36;60.30;98116.75;106305;1278;25462;-85
2022/07/22 08:08:16;;;;;;;16.90;12.60;;;;;;;24.36;60.36;98111.79;106602;1274;22630;-83
2022/07/22 08:10:44;;;;;;;20.50;12.30;;;;;;;24.44;60.27;98105.09;106453;1277;22663;-83
2022/07/22 08:13:47;;;;;;;18.30;12.20;;;;;;;24.67;60.10;98106.94;106606;1275;22580;-86
2022/07/22 08:16:18;;;;;;;20.50;12.70;;;;;;;24.83;59.78;98113.55;106660;1274;25634;-85
2022/07/22 08:18:49;;;;;;;23.10;13.20;;;;;;;25.01;59.51;98116.50;106562;1274;22693;-85
2022/07/22 08:21:17;;;;;;;23.40;13.30;;;;;;;25.10;59.23;98122.91;106612;1274;22722;-85
2022/07/22 08:23:56;;;;;;;27.80;13.00;;;;;;;25.15;58.97;98121.30;106677;1274;25397;-84
2022/07/22 08:26:25;;;;;;;18.40;12.50;;;;;;;25.24;59.28;98116.60;106576;1274;23551;-84
2022/07/22 08:28:59;;;;;;;17.20;13.50;;;;;;;25.33;58.65;98126.39;107438;1274;22567;-85
2022/07/22 08:31:29;;;;;;;17.10;13.60;;;;;;;25.43;58.00;98126.40;106823;1275;22720;-87
2022/07/22 08:34:23;;;;;;;19.90;13.10;;;;;;;25.61;58.30;98130.13;106421;1277;22558;-83
2022/07/22 08:37:50;;;;;;;13.00;11.10;;;;;;;25.72;57.64;98127.69;106367;1274;25506;-78
2022/07/22 08:41:00;;;;;;;17.80;12.10;;;;;;;25.70;57.23;98130.59;106242;1274;22538;-79
2022/07/22 08:43:36;;;;;;;20.20;13.30;;;;;;;25.80;57.27;98128.48;106423;1274;23214;-80
2022/07/22 08:46:05;;;;;;;20.90;13.80;;;;;;;25.83;57.04;98122.11;106213;1275;22757;-80
2022/07/22 08:49:02;;;;;;;18.40;12.90;;;;;;;25.99;55.74;98129.91;106378;1278;24367;-79
2022/07/22 08:51:56;;;;;;;16.60;12.00;;;;;;;26.09;55.65;98121.54;106263;1277;24268;-80
2022/07/22 08:54:27;;;;;;;17.20;13.00;;;;;;;26.23;55.43;98123.09;106466;1274;23329;-82
2022/07/22 08:56:57;;;;;;;25.30;13.20;;;;;;;26.29;55.26;98125.84;106407;1274;24102;-81
2022/07/22 08:59:25;;;;;;;17.20;13.90;;;;;;;26.41;54.56;98128.34;106672;1277;22653;-82
2022/07/22 09:02:08;;;;;;;16.40;12.30;;;;;;;26.49;53.91;98129.67;106230;1274;22691;-81
2022/07/22 09:05:03;;;;;;;16.70;12.60;;;;;;;26.54;53.51;98130.55;106330;1277;25322;-81
2022/07/22 09:07:58;;;;;;;21.60;15.60;;;;;;;26.59;54.17;98127.38;106413;1274;25331;-81
2022/07/22 09:10:50;;;;;;;16.10;12.60;;;;;;;26.66;53.39;98127.35;106550;1274;22584;-82
2022/07/22 09:13:55;;;;;;;15.00;12.10;;;;;;;26.66;54.06;98124.90;106012;1280;22623;-84
2022/07/22 09:16:48;;;;;;;19.60;12.90;;;;;;;26.76;53.90;98126.92;106536;1275;22662;-83
2022/07/22 09:19:40;;;;;;;19.10;13.50;;;;;;;26.84;53.53;98132.41;106257;1274;25361;-87
2022/07/22 09:22:35;;;;;;;20.50;12.40;;;;;;;26.87;53.24;98132.64;106687;1275;24405;-87
2022/07/22 09:25:26;;;;;;;21.20;13.50;;;;;;;26.88;53.46;98130.83;106520;1275;24240;-86
2022/07/22 09:28:17;;;;;;;20.40;13.00;;;;;;;27.08;53.86;98131.04;106753;1274;22697;-86
2022/07/22 09:31:06;;;;;;;20.50;12.80;;;;;;;27.34;53.49;98123.80;106638;1274;22653;-87
2022/07/22 09:33:44;;;;;;;20.60;13.00;;;;;;;27.54;53.18;98121.85;106603;1274;24215;-89
2022/07/22 09:36:25;;;;;;;24.40;14.60;;;;;;;27.69;52.64;98121.52;106842;1274;22684;-86
2022/07/22 09:38:55;;;;;;;19.90;12.80;;;;;;;27.79;52.68;98119.77;106625;1274;23916;-85
2022/07/22 09:41:24;;;;;;;22.70;14.00;;;;;;;28.01;52.53;98123.00;106704;1274;24610;-87
2022/07/22 09:43:52;;;;;;;19.60;12.50;;;;;;;28.17;52.31;98119.84;106633;1274;24646;-86
2022/07/22 09:46:36;;;;;;;20.70;11.70;;;;;;;28.42;51.72;98122.52;106704;1274;22705;-85
2022/07/22 09:49:34;;;;;;;22.80;12.60;;;;;;;28.50;50.45;98126.17;106573;1274;22676;-87
2022/07/22 09:52:27;;;;;;;20.60;12.00;;;;;;;28.52;49.84;98122.75;106578;1274;22552;-85
2022/07/22 09:55:06;;;;;;;17.40;11.30;;;;;;;28.63;49.61;98119.61;106719;1274;22485;-84
2022/07/22 09:57:37;;;;;;;14.90;11.10;;;;;;;28.74;49.75;98117.19;106676;1274;22879;-85
2022/07/22 10:00:09;;;;;;;19.20;12.40;;;;;;;28.84;49.15;98117.61;106759;1274;24459;-86
2022/07/22 10:03:00;;;;;;;17.00;10.90;;;;;;;28.81;48.73;98119.08;106735;1274;22563;-85
2022/07/22 10:05:33;;;;;;;24.30;12.70;;;;;;;28.82;48.67;98116.92;106484;1274;25314;-86
2022/07/22 10:08:04;;;;;;;18.90;12.60;;;;;;;28.80;48.80;98121.63;106721;1274;25285;-85
2022/07/22 10:10:35;;;;;;;14.20;10.40;;;;;;;28.76;48.23;98123.41;106774;1273;22757;-87
2022/07/22 10:13:05;;;;;;;19.10;11.40;;;;;;;28.60;48.15;98116.63;106532;1274;22550;-86
2022/07/22 10:15:36;;;;;;;12.40;10.40;;;;;;;28.44;48.25;98122.89;106679;1277;24433;-86
2022/07/22 10:18:14;;;;;;;14.40;10.70;;;;;;;28.41;48.07;98124.11;106692;1274;22581;-86
2022/07/22 10:20:44;;;;;;;15.10;10.60;;;;;;;28.56;47.87;98123.02;106597;1274;24217;-85
2022/07/22 10:23:13;;;;;;;18.50;11.50;;;;;;;28.66;47.17;98117.90;106750;1272;25515;-84
2022/07/22 10:25:53;;;;;;;17.20;11.10;;;;;;;28.74;47.37;98120.98;106663;1274;22675;-87
2022/07/22 10:28:32;;;;;;;13.80;10.70;;;;;;;28.86;47.28;98121.93;106531;1274;24655;-88
2022/07/22 10:31:24;;;;;;;18.50;11.40;;;;;;;29.01;47.10;98112.01;106645;1274;22730;-83
2022/07/22 10:33:55;;;;;;;19.10;10.10;;;;;;;29.30;46.96;98112.41;106753;1274;24121;-84
2022/07/22 10:36:42;;;;;;;10.90;9.50;;;;;;;29.47;46.34;98113.10;106704;1274;22556;-85
2022/07/22 10:39:13;;;;;;;17.50;9.30;;;;;;;29.59;44.77;98117.07;106566;1274;23579;-85
2022/07/22 10:41:43;;;;;;;14.20;8.60;;;;;;;29.55;45.04;98112.45;106721;1274;22689;-84
2022/07/22 10:44:48;;;;;;;15.20;9.20;;;;;;;29.42;44.67;98111.69;106798;1274;22571;-87
2022/07/22 10:48:10;;;;;;;12.90;9.80;;;;;;;29.39;44.73;98109.89;106833;1274;22652;-89
2022/07/22 10:50:41;;;;;;;14.10;9.70;;;;;;;29.44;44.61;98113.65;106592;1276;22538;-87
2022/07/22 10:53:21;;;;;;;17.40;10.30;;;;;;;29.58;44.88;98107.41;106745;1274;22581;-87
2022/07/22 10:56:26;;;;;;;14.90;10.60;;;;;;;29.79;44.51;98107.39;106951;1274;23420;-86
2022/07/22 10:58:56;;;;;;;15.80;9.70;;;;;;;29.99;44.00;98106.64;106733;1274;22711;-85
2022/07/22 11:01:30;;;;;;;11.30;9.00;;;;;;;30.05;43.65;98102.58;106768;1274;24190;-87
2022/07/22 11:04:10;;;;;;;14.90;8.90;;;;;;;29.97;43.62;98105.02;106780;1274;24327;-87
2022/07/22 11:06:46;;;;;;;13.70;9.30;;;;;;;29.95;43.80;98097.45;106772;1274;25348;-87
2022/07/22 11:09:17;;;;;;;17.50;9.00;;;;;;;30.15;43.47;98093.83;106753;1274;23503;-86
2022/07/22 11:11:47;;;;;;;13.00;8.70;;;;;;;30.40;43.37;98093.23;106734;1274;22540;-89
2022/07/22 11:14:27;;;;;;;12.30;9.00;;;;;;;30.59;43.27;98088.17;106739;1274;25257;-87
2022/07/22 11:16:58;;;;;;;11.10;7.80;;;;;;;30.68;42.35;98091.56;106721;1274;26686;-87
2022/07/22 11:19:32;;;;;;;14.80;8.00;;;;;;;30.62;41.66;98085.48;106756;1274;24401;-86
2022/07/22 11:22:08;;;;;;;18.60;8.30;;;;;;;30.59;41.96;98088.65;106658;1274;22707;-85
2022/07/22 11:24:37;;;;;;;10.00;8.00;;;;;;;30.52;41.63;98090.30;106787;1274;22670;-86
2022/07/22 11:27:17;;;;;;;15.60;9.00;;;;;;;30.44;41.63;98090.77;106802;1274;22589;-87
2022/07/22 11:29:48;;;;;;;12.90;8.70;;;;;;;30.42;41.87;98085.33;106782;1274;24244;-87
2022/07/22 11:32:16;;;;;;;13.60;9.20;;;;;;;30.55;41.82;98088.33;106754;1274;22580;-88
2022/07/22 11:34:46;;;;;;;13.10;8.10;;;;;;;30.70;41.88;98084.60;106779;1274;23503;-87
2022/07/22 11:37:16;;;;;;;13.70;8.80;;;;;;;30.93;42.08;98078.89;106437;1274;24235;-86
2022/07/22 11:39:45;;;;;;;13.20;8.60;;;;;;;31.16;41.00;98077.58;106675;1274;23443;-86
2022/07/22 11:42:13;;;;;;;13.60;9.10;;;;;;;31.23;41.24;98076.70;106692;1274;25329;-87